sensor_id;sensor_type;location;lat;lon;timestamp;P1;durP1;ratioP1;P2;durP2;ratioP2
2972;SDS011;1496;51.404;7.232;2022-11-13T00:02:35;13.43;;;8.83;;
2972;SDS011;1496;51.404;7.232;2022-11-13T00:05:19;11.17;;;9.33;;
2972;SDS011;1496;51.404;7.232;2022-11-13T00:08:03;9.17;;;7.27;;
2972;SDS011;1496;51.404;7.232;2022-11-13T00:10:50;10.53;;;7.20;;
2972;SDS011;1496;51.404;7.232;2022-11-13T00:13:35;13.87;;;9.03;;
2972;SDS011;1496;51.404;7.232;2022-11-13T00:16:19;11.33;;;8.20;;
2972;SDS011;1496;51.404;7.232;2022-11-13T00:19:04;11.00;;;8.33;;
2972;SDS011;1496;51.404;7.232;2022-11-13T00:21:49;13.50;;;8.70;;
2972;SDS011;1496;51.404;7.232;2022-11-13T00:24:33;10.10;;;7.60;;
2972;SDS011;1496;51.404;7.232;2022-11-13T00:27:17;11.20;;;7.80;;
2972;SDS011;1496;51.404;7.232;2022-11-13T00:30:01;12.10;;;6.77;;
2972;SDS011;1496;51.404;7.232;2022-11-13T00:32:46;9.17;;;7.60;;
2972;SDS011;1496;51.404;7.232;2022-11-13T00:35:31;8.03;;;6.40;;
2972;SDS011;1496;51.404;7.232;2022-11-13T00:38:16;12.13;;;7.20;;
2972;SDS011;1496;51.404;7.232;2022-11-13T00:41:01;11.17;;;8.70;;
2972;SDS011;1496;51.404;7.232;2022-11-13T00:43:45;12.07;;;7.70;;
2972;SDS011;1496;51.404;7.232;2022-11-13T00:46:29;9.43;;;7.30;;
2972;SDS011;1496;51.404;7.232;2022-11-13T00:49:13;9.87;;;8.23;;
2972;SDS011;1496;51.404;7.232;2022-11-13T00:51:59;16.10;;;11.23;;
2972;SDS011;1496;51.404;7.232;2022-11-13T00:54:44;48.00;;;25.40;;
2972;SDS011;1496;51.404;7.232;2022-11-13T00:57:28;12.00;;;7.90;;
2972;SDS011;1496;51.404;7.232;2022-11-13T01:00:12;8.87;;;6.60;;
2972;SDS011;1496;51.404;7.232;2022-11-13T01:02:59;6.77;;;5.80;;
2972;SDS011;1496;51.404;7.232;2022-11-13T01:05:43;8.10;;;5.57;;
2972;SDS011;1496;51.404;7.232;2022-11-13T01:08:28;9.07;;;5.90;;
2972;SDS011;1496;51.404;7.232;2022-11-13T01:11:21;9.80;;;5.70;;
2972;SDS011;1496;51.404;7.232;2022-11-13T01:14:08;12.40;;;5.73;;
2972;SDS011;1496;51.404;7.232;2022-11-13T01:16:52;9.00;;;5.80;;
2972;SDS011;1496;51.404;7.232;2022-11-13T01:19:36;8.03;;;7.17;;
2972;SDS011;1496;51.404;7.232;2022-11-13T01:22:21;16.33;;;10.13;;
2972;SDS011;1496;51.404;7.232;2022-11-13T01:25:05;14.33;;;9.27;;
2972;SDS011;1496;51.404;7.232;2022-11-13T01:27:50;17.40;;;9.80;;
2972;SDS011;1496;51.404;7.232;2022-11-13T01:30:34;17.13;;;10.33;;
2972;SDS011;1496;51.404;7.232;2022-11-13T01:33:19;20.63;;;11.60;;
2972;SDS011;1496;51.404;7.232;2022-11-13T01:36:05;22.80;;;10.50;;
2972;SDS011;1496;51.404;7.232;2022-11-13T01:38:51;14.43;;;9.20;;
2972;SDS011;1496;51.404;7.232;2022-11-13T01:41:35;22.20;;;10.30;;
2972;SDS011;1496;51.404;7.232;2022-11-13T01:44:20;14.33;;;7.87;;
2972;SDS011;1496;51.404;7.232;2022-11-13T01:47:04;11.60;;;7.30;;
2972;SDS011;1496;51.404;7.232;2022-11-13T01:49:53;10.37;;;7.10;;
2972;SDS011;1496;51.404;7.232;2022-11-13T01:52:40;10.00;;;6.13;;
2972;SDS011;1496;51.404;7.232;2022-11-13T01:55:25;11.70;;;6.60;;
2972;SDS011;1496;51.404;7.232;2022-11-13T01:58:09;16.50;;;6.90;;
2972;SDS011;1496;51.404;7.232;2022-11-13T02:00:55;12.47;;;7.50;;
2972;SDS011;1496;51.404;7.232;2022-11-13T02:03:39;9.33;;;6.23;;
2972;SDS011;1496;51.404;7.232;2022-11-13T02:06:24;9.93;;;5.93;;
2972;SDS011;1496;51.404;7.232;2022-11-13T02:09:11;8.60;;;6.00;;
2972;SDS011;1496;51.404;7.232;2022-11-13T02:11:58;10.87;;;6.43;;
2972;SDS011;1496;51.404;7.232;2022-11-13T02:14:45;9.20;;;5.23;;
2972;SDS011;1496;51.404;7.232;2022-11-13T02:17:36;7.90;;;5.20;;
2972;SDS011;1496;51.404;7.232;2022-11-13T02:20:34;8.63;;;6.40;;
2972;SDS011;1496;51.404;7.232;2022-11-13T02:23:36;8.63;;;5.80;;
2972;SDS011;1496;51.404;7.232;2022-11-13T02:26:27;6.33;;;4.47;;
2972;SDS011;1496;51.404;7.232;2022-11-13T02:29:13;8.20;;;4.80;;
2972;SDS011;1496;51.404;7.232;2022-11-13T02:31:58;5.23;;;3.30;;
2972;SDS011;1496;51.404;7.232;2022-11-13T02:34:42;6.97;;;4.10;;
2972;SDS011;1496;51.404;7.232;2022-11-13T02:37:26;5.50;;;4.67;;
2972;SDS011;1496;51.404;7.232;2022-11-13T02:40:11;5.50;;;3.43;;
2972;SDS011;1496;51.404;7.232;2022-11-13T02:42:55;5.43;;;4.33;;
2972;SDS011;1496;51.404;7.232;2022-11-13T02:45:40;4.67;;;3.27;;
2972;SDS011;1496;51.404;7.232;2022-11-13T02:48:24;4.50;;;3.20;;
2972;SDS011;1496;51.404;7.232;2022-11-13T02:51:08;6.73;;;4.20;;
2972;SDS011;1496;51.404;7.232;2022-11-13T02:53:52;3.40;;;3.10;;
2972;SDS011;1496;51.404;7.232;2022-11-13T02:56:36;4.07;;;3.40;;
2972;SDS011;1496;51.404;7.232;2022-11-13T02:59:20;3.40;;;2.50;;
2972;SDS011;1496;51.404;7.232;2022-11-13T03:02:04;4.57;;;3.47;;
2972;SDS011;1496;51.404;7.232;2022-11-13T03:04:49;3.53;;;2.57;;
2972;SDS011;1496;51.404;7.232;2022-11-13T03:07:33;4.77;;;2.83;;
2972;SDS011;1496;51.404;7.232;2022-11-13T03:10:17;7.77;;;3.63;;
2972;SDS011;1496;51.404;7.232;2022-11-13T03:13:01;6.00;;;3.10;;
2972;SDS011;1496;51.404;7.232;2022-11-13T03:15:45;10.33;;;2.97;;
2972;SDS011;1496;51.404;7.232;2022-11-13T03:18:29;4.27;;;2.73;;
2972;SDS011;1496;51.404;7.232;2022-11-13T03:21:14;4.87;;;2.87;;
2972;SDS011;1496;51.404;7.232;2022-11-13T03:23:58;6.50;;;2.90;;
2972;SDS011;1496;51.404;7.232;2022-11-13T03:26:43;3.10;;;2.43;;
2972;SDS011;1496;51.404;7.232;2022-11-13T03:29:28;7.40;;;4.20;;
2972;SDS011;1496;51.404;7.232;2022-11-13T03:32:26;7.10;;;4.90;;
2972;SDS011;1496;51.404;7.232;2022-11-13T03:35:13;7.80;;;5.20;;
2972;SDS011;1496;51.404;7.232;2022-11-13T03:37:57;6.93;;;5.47;;
2972;SDS011;1496;51.404;7.232;2022-11-13T03:40:42;8.60;;;5.90;;
2972;SDS011;1496;51.404;7.232;2022-11-13T03:43:26;8.70;;;6.13;;
2972;SDS011;1496;51.404;7.232;2022-11-13T03:46:14;9.23;;;6.33;;
2972;SDS011;1496;51.404;7.232;2022-11-13T03:49:00;9.00;;;6.63;;
2972;SDS011;1496;51.404;7.232;2022-11-13T03:51:44;7.50;;;4.63;;
2972;SDS011;1496;51.404;7.232;2022-11-13T03:54:28;7.13;;;5.53;;
2972;SDS011;1496;51.404;7.232;2022-11-13T03:57:12;10.63;;;5.70;;
2972;SDS011;1496;51.404;7.232;2022-11-13T04:00:06;8.43;;;5.77;;
2972;SDS011;1496;51.404;7.232;2022-11-13T04:02:50;7.67;;;5.50;;
2972;SDS011;1496;51.404;7.232;2022-11-13T04:05:36;6.27;;;5.30;;
2972;SDS011;1496;51.404;7.232;2022-11-13T04:08:22;8.17;;;5.90;;
2972;SDS011;1496;51.404;7.232;2022-11-13T04:11:07;7.57;;;5.10;;
2972;SDS011;1496;51.404;7.232;2022-11-13T04:13:52;6.07;;;5.00;;
2972;SDS011;1496;51.404;7.232;2022-11-13T04:16:37;4.80;;;3.53;;
2972;SDS011;1496;51.404;7.232;2022-11-13T04:19:23;6.37;;;4.40;;
2972;SDS011;1496;51.404;7.232;2022-11-13T04:22:07;7.90;;;4.00;;
2972;SDS011;1496;51.404;7.232;2022-11-13T04:24:52;4.47;;;4.03;;
2972;SDS011;1496;51.404;7.232;2022-11-13T04:27:36;5.80;;;3.87;;
2972;SDS011;1496;51.404;7.232;2022-11-13T04:30:20;5.17;;;3.60;;
2972;SDS011;1496;51.404;7.232;2022-11-13T04:33:05;4.50;;;2.83;;
2972;SDS011;1496;51.404;7.232;2022-11-13T04:35:50;3.87;;;2.93;;
2972;SDS011;1496;51.404;7.232;2022-11-13T04:38:34;5.17;;;3.90;;
2972;SDS011;1496;51.404;7.232;2022-11-13T04:41:19;7.63;;;4.60;;
2972;SDS011;1496;51.404;7.232;2022-11-13T04:44:22;7.00;;;4.90;;
2972;SDS011;1496;51.404;7.232;2022-11-13T04:47:07;6.90;;;4.50;;
2972;SDS011;1496;51.404;7.232;2022-11-13T04:49:52;6.70;;;4.63;;
2972;SDS011;1496;51.404;7.232;2022-11-13T04:52:36;7.00;;;5.53;;
2972;SDS011;1496;51.404;7.232;2022-11-13T04:55:20;6.17;;;4.50;;
2972;SDS011;1496;51.404;7.232;2022-11-13T04:58:06;6.60;;;4.27;;
2972;SDS011;1496;51.404;7.232;2022-11-13T05:00:52;6.13;;;4.57;;
2972;SDS011;1496;51.404;7.232;2022-11-13T05:03:36;5.80;;;4.80;;
2972;SDS011;1496;51.404;7.232;2022-11-13T05:06:20;7.53;;;5.17;;
2972;SDS011;1496;51.404;7.232;2022-11-13T05:09:05;6.30;;;5.13;;
2972;SDS011;1496;51.404;7.232;2022-11-13T05:11:50;9.47;;;5.70;;
2972;SDS011;1496;51.404;7.232;2022-11-13T05:14:34;6.50;;;5.00;;
2972;SDS011;1496;51.404;7.232;2022-11-13T05:17:22;7.53;;;4.80;;
2972;SDS011;1496;51.404;7.232;2022-11-13T05:20:06;6.97;;;5.50;;
2972;SDS011;1496;51.404;7.232;2022-11-13T05:22:51;7.27;;;5.50;;
2972;SDS011;1496;51.404;7.232;2022-11-13T05:25:35;6.40;;;5.00;;
2972;SDS011;1496;51.404;7.232;2022-11-13T05:28:19;8.40;;;4.90;;
2972;SDS011;1496;51.404;7.232;2022-11-13T05:31:10;7.03;;;5.27;;
2972;SDS011;1496;51.404;7.232;2022-11-13T05:33:58;5.43;;;4.40;;
2972;SDS011;1496;51.404;7.232;2022-11-13T05:36:43;7.60;;;4.70;;
2972;SDS011;1496;51.404;7.232;2022-11-13T05:39:27;6.80;;;4.57;;
2972;SDS011;1496;51.404;7.232;2022-11-13T05:42:12;6.67;;;4.17;;
2972;SDS011;1496;51.404;7.232;2022-11-13T05:44:56;5.23;;;3.97;;
2972;SDS011;1496;51.404;7.232;2022-11-13T05:47:43;5.03;;;4.00;;
2972;SDS011;1496;51.404;7.232;2022-11-13T05:50:27;5.67;;;4.07;;
2972;SDS011;1496;51.404;7.232;2022-11-13T05:53:12;6.33;;;4.40;;
2972;SDS011;1496;51.404;7.232;2022-11-13T05:56:00;5.60;;;4.43;;
2972;SDS011;1496;51.404;7.232;2022-11-13T05:58:45;7.37;;;5.17;;
2972;SDS011;1496;51.404;7.232;2022-11-13T06:01:31;8.23;;;5.70;;
2972;SDS011;1496;51.404;7.232;2022-11-13T06:04:17;7.70;;;5.63;;
2972;SDS011;1496;51.404;7.232;2022-11-13T06:07:01;8.33;;;5.40;;
2972;SDS011;1496;51.404;7.232;2022-11-13T06:09:46;6.43;;;4.37;;
2972;SDS011;1496;51.404;7.232;2022-11-13T06:12:30;3.30;;;2.90;;
2972;SDS011;1496;51.404;7.232;2022-11-13T06:15:14;5.77;;;4.03;;
2972;SDS011;1496;51.404;7.232;2022-11-13T06:17:58;6.00;;;3.60;;
2972;SDS011;1496;51.404;7.232;2022-11-13T06:20:42;3.40;;;2.83;;
2972;SDS011;1496;51.404;7.232;2022-11-13T06:23:34;8.00;;;3.63;;
2972;SDS011;1496;51.404;7.232;2022-11-13T06:26:21;7.20;;;2.60;;
2972;SDS011;1496;51.404;7.232;2022-11-13T06:29:08;5.20;;;3.20;;
2972;SDS011;1496;51.404;7.232;2022-11-13T06:31:54;4.73;;;2.80;;
2972;SDS011;1496;51.404;7.232;2022-11-13T06:34:38;5.10;;;3.10;;
2972;SDS011;1496;51.404;7.232;2022-11-13T06:37:22;4.77;;;2.60;;
2972;SDS011;1496;51.404;7.232;2022-11-13T06:40:06;4.73;;;3.50;;
2972;SDS011;1496;51.404;7.232;2022-11-13T06:42:51;6.67;;;3.90;;
2972;SDS011;1496;51.404;7.232;2022-11-13T06:45:35;5.93;;;4.20;;
2972;SDS011;1496;51.404;7.232;2022-11-13T06:48:19;6.63;;;4.80;;
2972;SDS011;1496;51.404;7.232;2022-11-13T06:51:04;4.73;;;3.90;;
2972;SDS011;1496;51.404;7.232;2022-11-13T06:53:50;6.10;;;4.73;;
2972;SDS011;1496;51.404;7.232;2022-11-13T06:56:34;7.03;;;4.17;;
2972;SDS011;1496;51.404;7.232;2022-11-13T06:59:19;4.10;;;3.27;;
2972;SDS011;1496;51.404;7.232;2022-11-13T07:02:03;6.13;;;3.93;;
2972;SDS011;1496;51.404;7.232;2022-11-13T07:04:47;5.40;;;3.73;;
2972;SDS011;1496;51.404;7.232;2022-11-13T07:07:31;5.67;;;3.40;;
2972;SDS011;1496;51.404;7.232;2022-11-13T07:10:16;3.60;;;2.80;;
2972;SDS011;1496;51.404;7.232;2022-11-13T07:13:00;5.83;;;3.97;;
2972;SDS011;1496;51.404;7.232;2022-11-13T07:15:44;4.67;;;3.30;;
2972;SDS011;1496;51.404;7.232;2022-11-13T07:18:32;5.67;;;2.97;;
2972;SDS011;1496;51.404;7.232;2022-11-13T07:21:17;3.90;;;2.97;;
2972;SDS011;1496;51.404;7.232;2022-11-13T07:24:02;4.60;;;3.47;;
2972;SDS011;1496;51.404;7.232;2022-11-13T07:26:46;3.40;;;2.57;;
2972;SDS011;1496;51.404;7.232;2022-11-13T07:29:30;4.30;;;2.70;;
2972;SDS011;1496;51.404;7.232;2022-11-13T07:32:14;3.07;;;2.17;;
2972;SDS011;1496;51.404;7.232;2022-11-13T07:34:58;4.03;;;2.37;;
2972;SDS011;1496;51.404;7.232;2022-11-13T07:37:42;5.70;;;2.20;;
2972;SDS011;1496;51.404;7.232;2022-11-13T07:40:27;5.10;;;2.10;;
2972;SDS011;1496;51.404;7.232;2022-11-13T07:43:12;4.00;;;1.97;;
2972;SDS011;1496;51.404;7.232;2022-11-13T07:45:56;8.33;;;2.00;;
2972;SDS011;1496;51.404;7.232;2022-11-13T07:48:42;2.53;;;1.70;;
2972;SDS011;1496;51.404;7.232;2022-11-13T07:51:30;2.60;;;2.17;;
2972;SDS011;1496;51.404;7.232;2022-11-13T07:54:23;3.00;;;2.50;;
2972;SDS011;1496;51.404;7.232;2022-11-13T07:57:07;5.03;;;2.90;;
2972;SDS011;1496;51.404;7.232;2022-11-13T07:59:51;5.60;;;3.77;;
2972;SDS011;1496;51.404;7.232;2022-11-13T08:02:36;13.70;;;3.80;;
2972;SDS011;1496;51.404;7.232;2022-11-13T08:05:22;10.83;;;4.00;;
2972;SDS011;1496;51.404;7.232;2022-11-13T08:08:10;5.17;;;3.63;;
2972;SDS011;1496;51.404;7.232;2022-11-13T08:10:55;3.80;;;3.10;;
2972;SDS011;1496;51.404;7.232;2022-11-13T08:13:39;4.43;;;3.13;;
2972;SDS011;1496;51.404;7.232;2022-11-13T08:16:23;6.93;;;4.00;;
2972;SDS011;1496;51.404;7.232;2022-11-13T08:19:08;5.77;;;4.20;;
2972;SDS011;1496;51.404;7.232;2022-11-13T08:21:52;6.53;;;4.53;;
2972;SDS011;1496;51.404;7.232;2022-11-13T08:24:36;6.47;;;4.63;;
2972;SDS011;1496;51.404;7.232;2022-11-13T08:27:21;8.60;;;6.10;;
2972;SDS011;1496;51.404;7.232;2022-11-13T08:30:05;8.37;;;5.90;;
2972;SDS011;1496;51.404;7.232;2022-11-13T08:32:50;6.63;;;5.40;;
2972;SDS011;1496;51.404;7.232;2022-11-13T08:35:35;7.10;;;4.60;;
2972;SDS011;1496;51.404;7.232;2022-11-13T08:38:20;7.13;;;4.67;;
2972;SDS011;1496;51.404;7.232;2022-11-13T08:41:04;6.40;;;4.87;;
2972;SDS011;1496;51.404;7.232;2022-11-13T08:43:49;6.63;;;4.27;;
2972;SDS011;1496;51.404;7.232;2022-11-13T08:46:34;9.70;;;4.93;;
2972;SDS011;1496;51.404;7.232;2022-11-13T08:49:18;10.30;;;5.57;;
2972;SDS011;1496;51.404;7.232;2022-11-13T08:52:03;4.87;;;3.87;;
2972;SDS011;1496;51.404;7.232;2022-11-13T08:54:47;5.77;;;4.33;;
2972;SDS011;1496;51.404;7.232;2022-11-13T08:57:31;8.03;;;5.03;;
2972;SDS011;1496;51.404;7.232;2022-11-13T09:00:16;7.93;;;5.37;;
2972;SDS011;1496;51.404;7.232;2022-11-13T09:03:01;6.53;;;4.83;;
2972;SDS011;1496;51.404;7.232;2022-11-13T09:05:46;7.17;;;5.43;;
2972;SDS011;1496;51.404;7.232;2022-11-13T09:08:30;7.50;;;4.87;;
2972;SDS011;1496;51.404;7.232;2022-11-13T09:11:14;6.27;;;5.17;;
2972;SDS011;1496;51.404;7.232;2022-11-13T09:13:59;7.57;;;5.10;;
2972;SDS011;1496;51.404;7.232;2022-11-13T09:16:43;6.93;;;4.37;;
2972;SDS011;1496;51.404;7.232;2022-11-13T09:19:27;9.43;;;4.80;;
2972;SDS011;1496;51.404;7.232;2022-11-13T09:22:12;6.70;;;4.73;;
2972;SDS011;1496;51.404;7.232;2022-11-13T09:24:56;6.10;;;4.20;;
2972;SDS011;1496;51.404;7.232;2022-11-13T09:27:40;10.70;;;4.40;;
2972;SDS011;1496;51.404;7.232;2022-11-13T09:30:25;6.30;;;4.07;;
2972;SDS011;1496;51.404;7.232;2022-11-13T09:33:10;5.27;;;3.97;;
2972;SDS011;1496;51.404;7.232;2022-11-13T09:35:58;4.73;;;3.67;;
2972;SDS011;1496;51.404;7.232;2022-11-13T09:38:42;5.50;;;3.47;;
2972;SDS011;1496;51.404;7.232;2022-11-13T09:41:27;6.50;;;3.63;;
2972;SDS011;1496;51.404;7.232;2022-11-13T09:44:15;7.17;;;4.13;;
2972;SDS011;1496;51.404;7.232;2022-11-13T09:47:25;5.73;;;3.93;;
2972;SDS011;1496;51.404;7.232;2022-11-13T09:50:16;8.13;;;5.03;;
2972;SDS011;1496;51.404;7.232;2022-11-13T09:53:09;8.47;;;4.90;;
2972;SDS011;1496;51.404;7.232;2022-11-13T09:55:59;6.57;;;4.17;;
2972;SDS011;1496;51.404;7.232;2022-11-13T10:02:21;9.83;;;5.03;;
2972;SDS011;1496;51.404;7.232;2022-11-13T10:05:22;6.13;;;4.37;;
2972;SDS011;1496;51.404;7.232;2022-11-13T10:11:15;5.80;;;4.50;;
2972;SDS011;1496;51.404;7.232;2022-11-13T10:17:03;6.70;;;4.60;;
2972;SDS011;1496;51.404;7.232;2022-11-13T10:20:03;5.63;;;4.50;;
2972;SDS011;1496;51.404;7.232;2022-11-13T10:22:55;7.77;;;5.20;;
2972;SDS011;1496;51.404;7.232;2022-11-13T10:25:47;7.47;;;4.90;;
2972;SDS011;1496;51.404;7.232;2022-11-13T10:28:35;4.97;;;3.43;;
2972;SDS011;1496;51.404;7.232;2022-11-13T10:31:21;4.63;;;3.50;;
2972;SDS011;1496;51.404;7.232;2022-11-13T10:34:06;6.00;;;4.17;;
2972;SDS011;1496;51.404;7.232;2022-11-13T10:39:59;6.20;;;4.30;;
2972;SDS011;1496;51.404;7.232;2022-11-13T10:42:44;6.60;;;4.50;;
2972;SDS011;1496;51.404;7.232;2022-11-13T10:45:28;9.50;;;4.23;;
2972;SDS011;1496;51.404;7.232;2022-11-13T10:48:19;6.33;;;3.80;;
2972;SDS011;1496;51.404;7.232;2022-11-13T10:51:22;8.10;;;4.00;;
2972;SDS011;1496;51.404;7.232;2022-11-13T10:54:23;6.43;;;4.20;;
2972;SDS011;1496;51.404;7.232;2022-11-13T10:57:23;7.53;;;4.80;;
2972;SDS011;1496;51.404;7.232;2022-11-13T11:00:23;8.20;;;5.97;;
2972;SDS011;1496;51.404;7.232;2022-11-13T11:03:17;10.33;;;4.97;;
2972;SDS011;1496;51.404;7.232;2022-11-13T11:06:04;7.47;;;5.30;;
2972;SDS011;1496;51.404;7.232;2022-11-13T11:08:48;9.50;;;5.50;;
2972;SDS011;1496;51.404;7.232;2022-11-13T11:11:32;15.37;;;6.50;;
2972;SDS011;1496;51.404;7.232;2022-11-13T11:14:40;9.40;;;5.90;;
2972;SDS011;1496;51.404;7.232;2022-11-13T11:17:38;7.40;;;5.60;;
2972;SDS011;1496;51.404;7.232;2022-11-13T11:20:39;13.07;;;7.30;;
2972;SDS011;1496;51.404;7.232;2022-11-13T11:23:42;13.10;;;8.07;;
2972;SDS011;1496;51.404;7.232;2022-11-13T11:26:35;11.83;;;5.47;;
2972;SDS011;1496;51.404;7.232;2022-11-13T11:29:24;12.43;;;7.70;;
2972;SDS011;1496;51.404;7.232;2022-11-13T11:32:39;10.37;;;7.90;;
2972;SDS011;1496;51.404;7.232;2022-11-13T11:35:44;15.73;;;8.80;;
2972;SDS011;1496;51.404;7.232;2022-11-13T11:38:40;15.13;;;5.97;;
2972;SDS011;1496;51.404;7.232;2022-11-13T11:41:33;11.57;;;6.30;;
2972;SDS011;1496;51.404;7.232;2022-11-13T11:44:25;16.23;;;6.07;;
2972;SDS011;1496;51.404;7.232;2022-11-13T11:47:15;14.10;;;5.63;;
2972;SDS011;1496;51.404;7.232;2022-11-13T11:50:01;12.90;;;6.40;;
2972;SDS011;1496;51.404;7.232;2022-11-13T11:59:15;10.70;;;5.40;;
2972;SDS011;1496;51.404;7.232;2022-11-13T12:12:08;7.70;;;5.50;;
2972;SDS011;1496;51.404;7.232;2022-11-13T12:18:25;9.20;;;5.83;;
2972;SDS011;1496;51.404;7.232;2022-11-13T12:24:57;10.13;;;5.53;;
2972;SDS011;1496;51.404;7.232;2022-11-13T12:27:58;7.83;;;4.57;;
2972;SDS011;1496;51.404;7.232;2022-11-13T12:31:13;8.97;;;4.90;;
2972;SDS011;1496;51.404;7.232;2022-11-13T12:34:34;9.83;;;5.30;;
2972;SDS011;1496;51.404;7.232;2022-11-13T12:37:42;7.83;;;4.60;;
2972;SDS011;1496;51.404;7.232;2022-11-13T12:41:21;6.63;;;4.57;;
2972;SDS011;1496;51.404;7.232;2022-11-13T12:44:18;8.60;;;4.50;;
2972;SDS011;1496;51.404;7.232;2022-11-13T12:47:13;6.43;;;4.70;;
2972;SDS011;1496;51.404;7.232;2022-11-13T12:50:18;11.03;;;5.13;;
2972;SDS011;1496;51.404;7.232;2022-11-13T12:53:11;9.27;;;5.30;;
2972;SDS011;1496;51.404;7.232;2022-11-13T12:56:07;9.27;;;5.47;;
2972;SDS011;1496;51.404;7.232;2022-11-13T13:05:37;6.27;;;4.30;;
2972;SDS011;1496;51.404;7.232;2022-11-13T13:08:38;8.10;;;4.90;;
2972;SDS011;1496;51.404;7.232;2022-11-13T13:14:55;7.03;;;4.63;;
2972;SDS011;1496;51.404;7.232;2022-11-13T13:17:44;7.03;;;4.40;;
2972;SDS011;1496;51.404;7.232;2022-11-13T13:21:15;5.40;;;3.60;;
2972;SDS011;1496;51.404;7.232;2022-11-13T13:23:49;6.97;;;4.03;;
2972;SDS011;1496;51.404;7.232;2022-11-13T13:26:43;6.87;;;4.37;;
2972;SDS011;1496;51.404;7.232;2022-11-13T13:29:29;5.50;;;4.00;;
2972;SDS011;1496;51.404;7.232;2022-11-13T13:32:17;5.00;;;3.03;;
2972;SDS011;1496;51.404;7.232;2022-11-13T13:35:10;5.27;;;4.20;;
2972;SDS011;1496;51.404;7.232;2022-11-13T13:38:14;3.87;;;2.93;;
2972;SDS011;1496;51.404;7.232;2022-11-13T13:44:52;5.10;;;3.40;;
2972;SDS011;1496;51.404;7.232;2022-11-13T13:47:52;4.23;;;3.07;;
2972;SDS011;1496;51.404;7.232;2022-11-13T13:50:44;5.80;;;3.37;;
2972;SDS011;1496;51.404;7.232;2022-11-13T13:53:30;4.27;;;3.13;;
2972;SDS011;1496;51.404;7.232;2022-11-13T13:56:17;4.43;;;3.23;;
2972;SDS011;1496;51.404;7.232;2022-11-13T13:59:03;4.00;;;3.10;;
2972;SDS011;1496;51.404;7.232;2022-11-13T14:01:56;7.00;;;3.30;;
2972;SDS011;1496;51.404;7.232;2022-11-13T14:04:46;4.97;;;3.50;;
2972;SDS011;1496;51.404;7.232;2022-11-13T14:07:34;3.40;;;3.00;;
2972;SDS011;1496;51.404;7.232;2022-11-13T14:10:21;6.63;;;3.90;;
2972;SDS011;1496;51.404;7.232;2022-11-13T14:13:13;7.23;;;4.17;;
2972;SDS011;1496;51.404;7.232;2022-11-13T14:16:06;5.50;;;3.60;;
2972;SDS011;1496;51.404;7.232;2022-11-13T14:19:01;5.00;;;3.87;;
2972;SDS011;1496;51.404;7.232;2022-11-13T14:21:48;7.73;;;4.00;;
2972;SDS011;1496;51.404;7.232;2022-11-13T14:24:53;5.70;;;3.57;;
2972;SDS011;1496;51.404;7.232;2022-11-13T14:27:41;6.43;;;4.00;;
2972;SDS011;1496;51.404;7.232;2022-11-13T14:30:26;5.73;;;2.90;;
2972;SDS011;1496;51.404;7.232;2022-11-13T14:33:14;8.83;;;3.60;;
2972;SDS011;1496;51.404;7.232;2022-11-13T14:36:04;5.90;;;4.07;;
2972;SDS011;1496;51.404;7.232;2022-11-13T14:38:49;5.77;;;4.30;;
2972;SDS011;1496;51.404;7.232;2022-11-13T14:41:39;4.37;;;3.50;;
2972;SDS011;1496;51.404;7.232;2022-11-13T14:44:32;5.03;;;4.03;;
2972;SDS011;1496;51.404;7.232;2022-11-13T14:47:21;4.70;;;4.00;;
2972;SDS011;1496;51.404;7.232;2022-11-13T14:50:19;5.50;;;3.87;;
2972;SDS011;1496;51.404;7.232;2022-11-13T14:53:08;7.70;;;3.90;;
2972;SDS011;1496;51.404;7.232;2022-11-13T14:55:54;5.27;;;3.97;;
2972;SDS011;1496;51.404;7.232;2022-11-13T14:58:41;7.70;;;3.73;;
2972;SDS011;1496;51.404;7.232;2022-11-13T15:01:32;3.43;;;2.93;;
2972;SDS011;1496;51.404;7.232;2022-11-13T15:04:17;5.30;;;3.93;;
2972;SDS011;1496;51.404;7.232;2022-11-13T15:07:02;7.13;;;3.40;;
2972;SDS011;1496;51.404;7.232;2022-11-13T15:10:00;4.93;;;3.53;;
2972;SDS011;1496;51.404;7.232;2022-11-13T15:12:44;4.77;;;3.30;;
2972;SDS011;1496;51.404;7.232;2022-11-13T15:15:28;4.67;;;3.00;;
2972;SDS011;1496;51.404;7.232;2022-11-13T15:18:15;7.33;;;3.60;;
2972;SDS011;1496;51.404;7.232;2022-11-13T15:21:02;4.07;;;3.50;;
2972;SDS011;1496;51.404;7.232;2022-11-13T15:23:46;4.63;;;3.77;;
2972;SDS011;1496;51.404;7.232;2022-11-13T15:26:30;4.80;;;3.03;;
2972;SDS011;1496;51.404;7.232;2022-11-13T15:29:14;4.83;;;3.33;;
2972;SDS011;1496;51.404;7.232;2022-11-13T15:31:58;5.00;;;2.90;;
2972;SDS011;1496;51.404;7.232;2022-11-13T15:34:42;6.57;;;4.07;;
2972;SDS011;1496;51.404;7.232;2022-11-13T15:37:26;7.70;;;4.30;;
2972;SDS011;1496;51.404;7.232;2022-11-13T15:40:14;4.60;;;3.67;;
2972;SDS011;1496;51.404;7.232;2022-11-13T15:43:00;5.90;;;3.50;;
2972;SDS011;1496;51.404;7.232;2022-11-13T15:45:45;6.80;;;3.60;;
2972;SDS011;1496;51.404;7.232;2022-11-13T15:48:29;4.03;;;2.90;;
2972;SDS011;1496;51.404;7.232;2022-11-13T15:51:20;3.93;;;3.53;;
2972;SDS011;1496;51.404;7.232;2022-11-13T15:57:08;4.90;;;3.43;;
2972;SDS011;1496;51.404;7.232;2022-11-13T16:00:17;3.30;;;2.97;;
2972;SDS011;1496;51.404;7.232;2022-11-13T16:03:04;10.83;;;2.90;;
2972;SDS011;1496;51.404;7.232;2022-11-13T16:05:58;5.00;;;3.00;;
2972;SDS011;1496;51.404;7.232;2022-11-13T16:08:43;6.13;;;3.97;;
2972;SDS011;1496;51.404;7.232;2022-11-13T16:11:32;7.17;;;3.50;;
2972;SDS011;1496;51.404;7.232;2022-11-13T16:14:17;4.00;;;3.23;;
2972;SDS011;1496;51.404;7.232;2022-11-13T16:17:01;6.00;;;3.20;;
2972;SDS011;1496;51.404;7.232;2022-11-13T16:19:47;4.07;;;3.30;;
2972;SDS011;1496;51.404;7.232;2022-11-13T16:22:34;6.43;;;3.90;;
2972;SDS011;1496;51.404;7.232;2022-11-13T16:25:19;4.83;;;4.20;;
2972;SDS011;1496;51.404;7.232;2022-11-13T16:28:10;4.00;;;2.87;;
2972;SDS011;1496;51.404;7.232;2022-11-13T16:31:00;10.60;;;6.40;;
2972;SDS011;1496;51.404;7.232;2022-11-13T16:33:44;9.40;;;7.97;;
2972;SDS011;1496;51.404;7.232;2022-11-13T16:36:28;18.40;;;12.17;;
2972;SDS011;1496;51.404;7.232;2022-11-13T16:39:14;22.00;;;19.50;;
2972;SDS011;1496;51.404;7.232;2022-11-13T16:41:59;23.53;;;19.60;;
2972;SDS011;1496;51.404;7.232;2022-11-13T16:44:44;10.70;;;9.23;;
2972;SDS011;1496;51.404;7.232;2022-11-13T16:47:28;7.27;;;5.93;;
2972;SDS011;1496;51.404;7.232;2022-11-13T16:50:21;6.80;;;5.07;;
2972;SDS011;1496;51.404;7.232;2022-11-13T16:53:09;5.53;;;3.50;;
2972;SDS011;1496;51.404;7.232;2022-11-13T16:55:54;8.63;;;5.77;;
2972;SDS011;1496;51.404;7.232;2022-11-13T16:58:38;15.80;;;9.90;;
2972;SDS011;1496;51.404;7.232;2022-11-13T17:01:23;9.00;;;7.70;;
2972;SDS011;1496;51.404;7.232;2022-11-13T17:04:09;6.63;;;5.03;;
2972;SDS011;1496;51.404;7.232;2022-11-13T17:06:56;6.73;;;3.70;;
2972;SDS011;1496;51.404;7.232;2022-11-13T17:09:43;7.60;;;6.23;;
2972;SDS011;1496;51.404;7.232;2022-11-13T17:12:28;7.80;;;5.53;;
2972;SDS011;1496;51.404;7.232;2022-11-13T17:15:12;4.30;;;3.90;;
2972;SDS011;1496;51.404;7.232;2022-11-13T17:17:56;7.13;;;4.70;;
2972;SDS011;1496;51.404;7.232;2022-11-13T17:20:41;6.73;;;4.60;;
2972;SDS011;1496;51.404;7.232;2022-11-13T17:23:26;6.23;;;4.53;;
2972;SDS011;1496;51.404;7.232;2022-11-13T17:26:11;5.57;;;4.60;;
2972;SDS011;1496;51.404;7.232;2022-11-13T17:28:55;6.70;;;4.93;;
2972;SDS011;1496;51.404;7.232;2022-11-13T17:31:44;5.00;;;4.40;;
2972;SDS011;1496;51.404;7.232;2022-11-13T17:34:28;4.57;;;3.90;;
2972;SDS011;1496;51.404;7.232;2022-11-13T17:37:12;4.47;;;4.07;;
2972;SDS011;1496;51.404;7.232;2022-11-13T17:39:56;4.07;;;3.53;;
2972;SDS011;1496;51.404;7.232;2022-11-13T17:42:41;5.43;;;4.20;;
2972;SDS011;1496;51.404;7.232;2022-11-13T17:45:25;9.43;;;4.93;;
2972;SDS011;1496;51.404;7.232;2022-11-13T17:48:09;7.23;;;4.57;;
2972;SDS011;1496;51.404;7.232;2022-11-13T17:50:57;5.50;;;4.27;;
2972;SDS011;1496;51.404;7.232;2022-11-13T17:53:42;4.90;;;4.20;;
2972;SDS011;1496;51.404;7.232;2022-11-13T17:56:26;6.90;;;4.27;;
2972;SDS011;1496;51.404;7.232;2022-11-13T17:59:11;6.50;;;5.57;;
2972;SDS011;1496;51.404;7.232;2022-11-13T18:01:55;5.87;;;5.03;;
2972;SDS011;1496;51.404;7.232;2022-11-13T18:04:39;9.10;;;5.27;;
2972;SDS011;1496;51.404;7.232;2022-11-13T18:07:23;8.93;;;5.47;;
2972;SDS011;1496;51.404;7.232;2022-11-13T18:10:07;8.57;;;5.70;;
2972;SDS011;1496;51.404;7.232;2022-11-13T18:12:53;7.60;;;5.47;;